Time;durP1;ratioP1;P1;durP2;ratioP2;P2;SDS_P1;SDS_P2;PMS_P1;PMS_P2;Temp;Humidity;BMP_temperature;BMP_pressure;BME280_temperature;BME280_humidity;BME280_pressure;Samples;Min_cycle;Max_cycle;Signal;HPM_P1;HPM_P2
2023/10/20 00:01:01;;;;;;;5.30;4.03;;;;;;;;;;5122201;27;20028;-67
2023/10/20 00:03:27;;;;;;;5.15;4.32;;;;;;;;;;5125407;27;20031;-67
2023/10/20 00:05:53;;;;;;;5.20;4.43;;;;;;;;;;5122127;27;20011;-67
2023/10/20 00:08:19;;;;;;;5.70;4.85;;;;;;;;;;5135130;27;20015;-67
2023/10/20 00:10:45;;;;;;;5.85;4.25;;;;;;;;;;5135189;27;20015;-67
2023/10/20 00:13:11;;;;;;;6.13;5.50;;;;;;;;;;5135768;27;20022;-67
2023/10/20 00:15:37;;;;;;;7.35;6.03;;;;;;;;;;5134700;27;20484;-69
2023/10/20 00:18:04;;;;;;;9.07;6.95;;;;;;;;;;5134873;27;20022;-67
2023/10/20 00:20:30;;;;;;;7.78;5.68;;;;;;;;;;5135637;27;20090;-67
2023/10/20 00:22:56;;;;;;;7.47;5.88;;;;;;;;;;5133222;27;20106;-67
2023/10/20 00:25:22;;;;;;;7.55;6.60;;;;;;;;;;5135223;27;20025;-67
2023/10/20 00:27:48;;;;;;;7.20;6.07;;;;;;;;;;5133929;27;20076;-68
2023/10/20 00:30:15;;;;;;;6.18;5.57;;;;;;;;;;5136001;27;20011;-67
2023/10/20 00:32:41;;;;;;;7.45;6.65;;;;;;;;;;5133222;27;20484;-67
2023/10/20 00:35:13;;;;;;;9.95;7.13;;;;;;;;;;5135438;27;20019;-67
2023/10/20 00:37:39;;;;;;;9.95;7.05;;;;;;;;;;5133450;27;20023;-69
2023/10/20 00:40:07;;;;;;;10.57;7.05;;;;;;;;;;5135196;27;20022;-67
2023/10/20 00:42:33;;;;;;;9.38;7.25;;;;;;;;;;5134564;27;20031;-67
2023/10/20 00:44:59;;;;;;;8.55;7.28;;;;;;;;;;5116545;27;20238;-67
2023/10/20 00:47:26;;;;;;;8.43;6.78;;;;;;;;;;5134137;27;20038;-67
2023/10/20 00:49:52;;;;;;;8.80;7.22;;;;;;;;;;5126848;27;20012;-67
2023/10/20 00:52:19;;;;;;;9.05;7.57;;;;;;;;;;5131614;27;20015;-67
2023/10/20 00:54:47;;;;;;;9.27;7.80;;;;;;;;;;5128837;27;20027;-67
2023/10/20 00:57:16;;;;;;;11.05;9.05;;;;;;;;;;5129714;27;20043;-67
2023/10/20 00:59:42;;;;;;;10.73;8.45;;;;;;;;;;5134009;27;20026;-67
2023/10/20 01:02:08;;;;;;;8.95;8.05;;;;;;;;;;5135057;27;20030;-67
2023/10/20 01:04:34;;;;;;;8.55;6.07;;;;;;;;;;5135012;27;20016;-67
2023/10/20 01:07:00;;;;;;;8.65;5.70;;;;;;;;;;5132826;27;20034;-67
2023/10/20 01:09:26;;;;;;;8.90;7.18;;;;;;;;;;5134724;27;20027;-67
2023/10/20 01:11:53;;;;;;;12.75;10.10;;;;;;;;;;5133932;27;20090;-67
2023/10/20 01:14:19;;;;;;;11.27;8.75;;;;;;;;;;5133294;27;20043;-67
2023/10/20 01:16:45;;;;;;;9.52;8.45;;;;;;;;;;5125512;27;20089;-67
2023/10/20 01:19:11;;;;;;;10.23;7.63;;;;;;;;;;5136007;27;20060;-67
2023/10/20 01:21:37;;;;;;;9.73;7.00;;;;;;;;;;5136098;27;20383;-69
2023/10/20 01:24:04;;;;;;;8.75;6.85;;;;;;;;;;5133542;27;20065;-67
2023/10/20 01:26:30;;;;;;;9.00;7.78;;;;;;;;;;5134174;27;20019;-67
2023/10/20 01:28:56;;;;;;;8.90;7.95;;;;;;;;;;5132706;27;20039;-67
2023/10/20 01:31:22;;;;;;;11.32;9.10;;;;;;;;;;5133682;27;20011;-67
2023/10/20 01:33:49;;;;;;;10.82;8.70;;;;;;;;;;5132538;27;20015;-67
2023/10/20 01:36:15;;;;;;;10.25;8.10;;;;;;;;;;5134319;27;20046;-67
2023/10/20 01:38:41;;;;;;;10.18;8.50;;;;;;;;;;5132259;27;20027;-67
2023/10/20 01:41:07;;;;;;;10.45;7.82;;;;;;;;;;5134175;27;20090;-67
2023/10/20 01:43:33;;;;;;;8.60;7.38;;;;;;;;;;5133443;27;20118;-67
2023/10/20 01:46:03;;;;;;;6.95;6.25;;;;;;;;;;5132947;27;20015;-67
2023/10/20 01:48:30;;;;;;;9.57;7.50;;;;;;;;;;5133467;27;20019;-67
2023/10/20 01:50:56;;;;;;;8.75;6.55;;;;;;;;;;5133127;27;20019;-68
2023/10/20 01:53:22;;;;;;;9.60;6.75;;;;;;;;;;5133378;27;20011;-68
2023/10/20 01:55:52;;;;;;;8.40;6.18;;;;;;;;;;5132744;27;20030;-68
2023/10/20 01:58:18;;;;;;;7.80;6.17;;;;;;;;;;5133272;27;20011;-68
2023/10/20 02:00:45;;;;;;;7.40;5.53;;;;;;;;;;5133267;27;20257;-68
2023/10/20 02:03:11;;;;;;;7.15;5.03;;;;;;;;;;5132951;27;20094;-67
2023/10/20 02:05:37;;;;;;;7.43;5.32;;;;;;;;;;5133378;27;20080;-70
2023/10/20 02:08:03;;;;;;;6.03;5.20;;;;;;;;;;5131987;27;20019;-68
2023/10/20 02:10:29;;;;;;;8.63;5.82;;;;;;;;;;5134044;27;20094;-68
2023/10/20 02:12:55;;;;;;;8.02;6.13;;;;;;;;;;5131950;27;20098;-67
2023/10/20 02:15:21;;;;;;;8.40;6.22;;;;;;;;;;5132445;27;20043;-67
2023/10/20 02:17:47;;;;;;;8.45;6.72;;;;;;;;;;5131439;27;20439;-68
2023/10/20 02:20:15;;;;;;;9.85;8.25;;;;;;;;;;5119957;27;20019;-68
2023/10/20 02:22:41;;;;;;;9.23;7.88;;;;;;;;;;5131891;27;20021;-68
2023/10/20 02:25:09;;;;;;;10.35;8.98;;;;;;;;;;5132756;27;20094;-67
2023/10/20 02:27:36;;;;;;;9.40;8.40;;;;;;;;;;5132228;27;20111;-68
2023/10/20 02:30:03;;;;;;;9.45;8.27;;;;;;;;;;5132626;27;20011;-67
2023/10/20 02:32:29;;;;;;;10.40;7.50;;;;;;;;;;5132072;27;20447;-67
2023/10/20 02:34:55;;;;;;;10.57;6.82;;;;;;;;;;5114158;27;20026;-67
2023/10/20 02:37:21;;;;;;;10.65;7.03;;;;;;;;;;5113810;27;20023;-68
2023/10/20 02:39:47;;;;;;;7.57;6.75;;;;;;;;;;5131863;27;20091;-67
2023/10/20 02:42:13;;;;;;;6.20;5.60;;;;;;;;;;5132278;27;20055;-67
2023/10/20 02:44:39;;;;;;;9.73;5.45;;;;;;;;;;5131370;27;20448;-69
2023/10/20 02:47:05;;;;;;;7.55;5.45;;;;;;;;;;5131622;27;20012;-68
2023/10/20 02:49:31;;;;;;;9.88;5.20;;;;;;;;;;5132696;27;20023;-68
2023/10/20 02:51:57;;;;;;;9.43;6.47;;;;;;;;;;5131910;27;20011;-68
2023/10/20 02:54:23;;;;;;;5.45;4.88;;;;;;;;;;5132434;27;20011;-68
2023/10/20 02:56:49;;;;;;;8.35;5.63;;;;;;;;;;5131838;27;20526;-68
2023/10/20 02:59:14;;;;;;;6.45;5.43;;;;;;;;;;5131405;27;20031;-68
2023/10/20 03:01:40;;;;;;;6.15;4.85;;;;;;;;;;5113659;27;20445;-68
2023/10/20 03:04:07;;;;;;;11.45;6.13;;;;;;;;;;5132117;27;20019;-68
2023/10/20 03:06:33;;;;;;;7.20;5.90;;;;;;;;;;5132917;27;20532;-68
2023/10/20 03:09:00;;;;;;;7.95;6.78;;;;;;;;;;5131053;27;20031;-68
2023/10/20 03:11:26;;;;;;;11.80;7.78;;;;;;;;;;5132273;27;20094;-68
2023/10/20 03:13:52;;;;;;;11.45;7.78;;;;;;;;;;5130544;27;20118;-68
2023/10/20 03:16:18;;;;;;;10.75;7.30;;;;;;;;;;5132443;27;20068;-68
2023/10/20 03:18:44;;;;;;;11.73;6.90;;;;;;;;;;5129910;27;20090;-68
2023/10/20 03:21:10;;;;;;;8.95;6.63;;;;;;;;;;5131960;27;20539;-68
2023/10/20 03:23:36;;;;;;;12.38;7.10;;;;;;;;;;5131654;27;20055;-70
2023/10/20 03:26:03;;;;;;;11.07;8.50;;;;;;;;;;5131257;27;20015;-68
2023/10/20 03:28:29;;;;;;;9.82;8.43;;;;;;;;;;5131726;27;20023;-68
2023/10/20 03:30:55;;;;;;;11.15;8.13;;;;;;;;;;5130131;27;21542;-68
2023/10/20 03:33:21;;;;;;;11.93;8.23;;;;;;;;;;5131513;27;20007;-68
2023/10/20 03:35:47;;;;;;;9.10;8.18;;;;;;;;;;5130224;28;20023;-68
2023/10/20 03:38:14;;;;;;;13.05;9.43;;;;;;;;;;5131102;28;20475;-68
2023/10/20 03:40:40;;;;;;;22.15;11.23;;;;;;;;;;5128075;28;20020;-69
2023/10/20 03:43:08;;;;;;;17.02;10.82;;;;;;;;;;5131243;28;20012;-68
2023/10/20 03:45:51;;;;;;;17.23;11.57;;;;;;;;;;5131159;28;20032;-69
2023/10/20 03:48:19;;;;;;;17.15;11.40;;;;;;;;;;5131058;28;20027;-68
2023/10/20 03:50:47;;;;;;;17.02;12.77;;;;;;;;;;5130705;28;20294;-68
2023/10/20 03:53:26;;;;;;;24.80;14.75;;;;;;;;;;5130586;28;20024;-68
2023/10/20 03:56:02;;;;;;;16.45;13.27;;;;;;;;;;5130393;28;20408;-68
2023/10/20 03:58:29;;;;;;;20.67;14.63;;;;;;;;;;5131346;28;20027;-68
2023/10/20 04:00:57;;;;;;;21.15;16.55;;;;;;;;;;5130656;28;20501;-68
2023/10/20 04:03:23;;;;;;;27.25;17.75;;;;;;;;;;5131168;28;20378;-68
2023/10/20 04:05:49;;;;;;;24.35;18.02;;;;;;;;;;5130878;28;20017;-68
2023/10/20 04:08:16;;;;;;;27.80;19.42;;;;;;;;;;5131310;28;20452;-69
2023/10/20 04:10:42;;;;;;;25.25;18.20;;;;;;;;;;5130249;28;20028;-69
2023/10/20 04:13:09;;;;;;;30.63;18.75;;;;;;;;;;5131329;28;20019;-68
2023/10/20 04:15:36;;;;;;;26.00;18.58;;;;;;;;;;5131220;27;20039;-68
2023/10/20 04:18:04;;;;;;;29.60;19.25;;;;;;;;;;5129970;28;20094;-68
2023/10/20 04:20:30;;;;;;;29.88;20.73;;;;;;;;;;5131749;28;20012;-67
2023/10/20 04:22:58;;;;;;;26.92;19.90;;;;;;;;;;5130073;28;20030;-66
2023/10/20 04:25:27;;;;;;;30.65;21.33;;;;;;;;;;5131546;28;20089;-68
2023/10/20 04:58:35;;;;;;;25.10;16.67;;;;;;;;;;5133596;27;20030;-68
2023/10/20 05:00:33;;;;;;;24.60;17.35;;;;;;;;;;5113322;27;20031;-68
2023/10/20 05:05:38;;;;;;;24.92;17.25;;;;;;;;;;5134600;27;20027;-68
2023/10/20 05:08:08;;;;;;;25.70;17.60;;;;;;;;;;5133700;27;20014;-69
2023/10/20 05:10:34;;;;;;;27.95;15.93;;;;;;;;;;5128824;27;20038;-67
2023/10/20 05:13:00;;;;;;;24.85;16.67;;;;;;;;;;5133070;27;20068;-71
2023/10/20 05:15:31;;;;;;;21.80;16.08;;;;;;;;;;5134343;27;20330;-73
2023/10/20 05:17:57;;;;;;;21.33;15.43;;;;;;;;;;5127976;27;20027;-69
2023/10/20 05:20:24;;;;;;;21.02;14.23;;;;;;;;;;5134508;27;20019;-66
2023/10/20 05:22:50;;;;;;;19.08;13.95;;;;;;;;;;5132871;27;20096;-70
2023/10/20 05:25:17;;;;;;;20.23;13.50;;;;;;;;;;5134210;27;20047;-70
2023/10/20 05:27:43;;;;;;;21.80;13.30;;;;;;;;;;5132174;27;20405;-67
2023/10/20 05:30:09;;;;;;;20.35;14.60;;;;;;;;;;5130788;27;20479;-70
2023/10/20 05:32:37;;;;;;;18.13;13.68;;;;;;;;;;5130636;27;20026;-70
2023/10/20 05:35:04;;;;;;;19.58;13.38;;;;;;;;;;5122879;27;20456;-70
2023/10/20 05:37:30;;;;;;;18.05;14.05;;;;;;;;;;5132719;27;20094;-69
2023/10/20 05:39:56;;;;;;;17.05;13.48;;;;;;;;;;5124587;27;20058;-69
2023/10/20 05:42:23;;;;;;;19.77;13.77;;;;;;;;;;5132286;27;20054;-69
2023/10/20 05:45:02;;;;;;;21.23;13.38;;;;;;;;;;5132673;27;20143;-69
2023/10/20 05:47:29;;;;;;;17.95;13.40;;;;;;;;;;5132785;27;20090;-69
2023/10/20 05:49:57;;;;;;;16.45;11.10;;;;;;;;;;5132632;27;20103;-69
2023/10/20 05:52:23;;;;;;;18.58;11.30;;;;;;;;;;5132578;27;20107;-69
2023/10/20 05:54:49;;;;;;;14.73;10.07;;;;;;;;;;5124352;27;20027;-70
2023/10/20 05:57:15;;;;;;;16.17;10.40;;;;;;;;;;5132524;27;20018;-69
2023/10/20 05:59:41;;;;;;;13.65;9.88;;;;;;;;;;5125603;27;20088;-70
2023/10/20 06:02:07;;;;;;;11.82;9.35;;;;;;;;;;5132697;27;20023;-70
2023/10/20 06:04:37;;;;;;;13.50;10.48;;;;;;;;;;5128117;27;20031;-70
2023/10/20 06:07:04;;;;;;;17.88;11.98;;;;;;;;;;5131867;27;20026;-70
2023/10/20 06:09:30;;;;;;;16.52;11.40;;;;;;;;;;5107500;27;20088;-69
2023/10/20 06:11:56;;;;;;;19.30;11.95;;;;;;;;;;5129908;27;20023;-69
2023/10/20 06:14:26;;;;;;;17.75;12.07;;;;;;;;;;5128989;27;20050;-70
2023/10/20 06:16:52;;;;;;;14.85;12.57;;;;;;;;;;5115432;27;20077;-70
2023/10/20 06:19:18;;;;;;;20.80;13.30;;;;;;;;;;5111722;28;20110;-70
2023/10/20 06:21:45;;;;;;;19.17;12.68;;;;;;;;;;5110298;27;20023;-70
2023/10/20 06:24:11;;;;;;;16.52;12.95;;;;;;;;;;5114219;27;20449;-70
2023/10/20 06:26:37;;;;;;;19.80;13.60;;;;;;;;;;5112196;27;20098;-70
2023/10/20 06:29:13;;;;;;;14.70;11.90;;;;;;;;;;5111036;28;20399;-66
2023/10/20 06:31:42;;;;;;;13.93;11.93;;;;;;;;;;5111101;28;20460;-70
2023/10/20 06:36:48;;;;;;;16.00;12.25;;;;;;;;;;5111345;28;20030;-68
2023/10/20 06:39:14;;;;;;;18.70;12.18;;;;;;;;;;5111244;28;20520;-68
2023/10/20 06:41:40;;;;;;;16.40;10.93;;;;;;;;;;5111439;28;20091;-70
2023/10/20 06:44:06;;;;;;;16.33;12.48;;;;;;;;;;5107560;28;20016;-68
2023/10/20 06:46:32;;;;;;;14.15;11.80;;;;;;;;;;5108300;28;20027;-68
2023/10/20 06:48:58;;;;;;;15.93;11.70;;;;;;;;;;5106351;28;20034;-69
2023/10/20 06:51:25;;;;;;;17.30;11.68;;;;;;;;;;5093038;28;20041;-68
2023/10/20 06:53:51;;;;;;;15.18;12.65;;;;;;;;;;5109776;28;20057;-68
2023/10/20 06:56:17;;;;;;;16.00;11.63;;;;;;;;;;5104490;28;20456;-68
2023/10/20 06:58:43;;;;;;;20.20;13.95;;;;;;;;;;5107449;28;20430;-68
2023/10/20 07:01:10;;;;;;;14.95;12.48;;;;;;;;;;5101745;28;20436;-68
2023/10/20 07:03:36;;;;;;;17.00;12.88;;;;;;;;;;5110531;28;20020;-68
2023/10/20 07:06:06;;;;;;;18.52;13.68;;;;;;;;;;5111213;28;20098;-68
2023/10/20 07:08:32;;;;;;;25.70;15.38;;;;;;;;;;5110738;28;20046;-68
2023/10/20 07:11:02;;;;;;;21.20;14.57;;;;;;;;;;5115270;27;20024;-68
2023/10/20 07:13:28;;;;;;;23.33;15.57;;;;;;;;;;5107767;27;20018;-69
2023/10/20 07:15:56;;;;;;;16.95;14.00;;;;;;;;;;5131129;27;20027;-68
2023/10/20 07:18:23;;;;;;;19.38;15.48;;;;;;;;;;5130151;27;20026;-69
2023/10/20 07:20:49;;;;;;;15.95;13.65;;;;;;;;;;5131479;27;20027;-68
2023/10/20 07:23:16;;;;;;;20.15;14.52;;;;;;;;;;5130410;27;20019;-68
2023/10/20 07:25:42;;;;;;;18.25;13.30;;;;;;;;;;5122852;27;20019;-69
2023/10/20 07:28:09;;;;;;;17.15;12.98;;;;;;;;;;5131385;27;20375;-68
2023/10/20 07:30:35;;;;;;;19.25;12.48;;;;;;;;;;5131225;27;20717;-68
2023/10/20 07:33:05;;;;;;;17.85;12.90;;;;;;;;;;5129800;27;20034;-69
2023/10/20 07:35:31;;;;;;;14.02;12.52;;;;;;;;;;5127480;27;20012;-68
2023/10/20 07:37:57;;;;;;;17.52;12.45;;;;;;;;;;5130352;28;20167;-68
2023/10/20 07:40:26;;;;;;;15.93;12.38;;;;;;;;;;5128488;28;20031;-68
2023/10/20 07:42:52;;;;;;;14.75;12.23;;;;;;;;;;5128075;28;20106;-69
2023/10/20 07:45:18;;;;;;;15.32;11.23;;;;;;;;;;5127757;28;20027;-68
2023/10/20 07:47:44;;;;;;;14.82;11.68;;;;;;;;;;5111520;28;20020;-69
2023/10/20 07:50:10;;;;;;;12.10;10.20;;;;;;;;;;5127701;28;20100;-68
2023/10/20 07:52:37;;;;;;;14.02;11.13;;;;;;;;;;5130494;28;20042;-68
2023/10/20 07:55:03;;;;;;;14.98;10.45;;;;;;;;;;5124505;28;20031;-68
2023/10/20 07:57:29;;;;;;;12.57;10.98;;;;;;;;;;5111636;28;20393;-68
2023/10/20 07:59:55;;;;;;;13.63;10.77;;;;;;;;;;5129754;28;20482;-68
2023/10/20 08:02:22;;;;;;;13.60;10.48;;;;;;;;;;5130235;28;20031;-68
2023/10/20 08:04:50;;;;;;;13.30;11.00;;;;;;;;;;5120901;27;20020;-69
2023/10/20 08:07:16;;;;;;;13.88;10.98;;;;;;;;;;5134302;27;20012;-68
2023/10/20 08:09:42;;;;;;;13.38;10.35;;;;;;;;;;5128493;27;20031;-69
2023/10/20 08:12:08;;;;;;;13.63;10.63;;;;;;;;;;5134783;27;20444;-68
2023/10/20 08:14:34;;;;;;;13.05;11.20;;;;;;;;;;5129554;27;20067;-68
2023/10/20 08:17:03;;;;;;;14.75;10.98;;;;;;;;;;5124890;27;20019;-68
2023/10/20 08:19:30;;;;;;;12.43;10.07;;;;;;;;;;5134816;27;20031;-68
2023/10/20 08:21:56;;;;;;;12.35;10.38;;;;;;;;;;5134768;27;20413;-68
2023/10/20 08:24:22;;;;;;;13.27;11.02;;;;;;;;;;5130483;27;20076;-68
2023/10/20 08:26:49;;;;;;;13.85;12.00;;;;;;;;;;5134275;27;20370;-68
2023/10/20 08:29:16;;;;;;;13.35;10.98;;;;;;;;;;5139497;27;20031;-67
2023/10/20 08:31:42;;;;;;;14.13;10.85;;;;;;;;;;5127768;27;20475;-68
2023/10/20 08:34:09;;;;;;;13.88;10.82;;;;;;;;;;5130078;27;20023;-68
2023/10/20 08:36:36;;;;;;;13.32;10.88;;;;;;;;;;5135529;27;20019;-68
2023/10/20 08:39:12;;;;;;;12.63;10.70;;;;;;;;;;5135123;27;20034;-68
2023/10/20 08:41:40;;;;;;;15.45;11.90;;;;;;;;;;5127376;27;20028;-70
2023/10/20 08:44:06;;;;;;;16.75;11.50;;;;;;;;;;5129136;27;20022;-69
2023/10/20 08:46:34;;;;;;;12.27;11.02;;;;;;;;;;5131294;27;20015;-68
2023/10/20 08:49:02;;;;;;;12.07;10.48;;;;;;;;;;5133846;27;20031;-68
2023/10/20 08:51:30;;;;;;;12.40;10.95;;;;;;;;;;5133480;27;20123;-68
2023/10/20 08:53:56;;;;;;;14.25;11.00;;;;;;;;;;5120094;27;20429;-68
2023/10/20 08:56:22;;;;;;;16.52;11.63;;;;;;;;;;5116487;27;20102;-68
2023/10/20 08:58:48;;;;;;;15.45;10.75;;;;;;;;;;5128374;27;20019;-67
2023/10/20 09:01:15;;;;;;;13.05;10.85;;;;;;;;;;5134940;27;20042;-69
2023/10/20 09:03:48;;;;;;;11.38;10.18;;;;;;;;;;5133160;27;20027;-70
2023/10/20 09:06:14;;;;;;;13.52;11.27;;;;;;;;;;5134779;27;20018;-68
2023/10/20 09:08:47;;;;;;;13.80;10.82;;;;;;;;;;5133669;27;20076;-69
2023/10/20 09:11:13;;;;;;;14.68;10.90;;;;;;;;;;5134503;27;20046;-69
2023/10/20 09:13:39;;;;;;;11.55;10.35;;;;;;;;;;5131189;27;20445;-70
2023/10/20 09:16:10;;;;;;;11.90;10.07;;;;;;;;;;5113522;27;20016;-68
2023/10/20 09:18:51;;;;;;;13.32;10.13;;;;;;;;;;5113202;28;20020;-68
2023/10/20 09:21:22;;;;;;;13.82;10.18;;;;;;;;;;5107682;28;20039;-69
2023/10/20 09:23:47;;;;;;;;;;;;;;;;;;5101334;28;20111;-68
2023/10/20 09:26:14;;;;;;;11.90;9.43;;;;;;;;;;5113149;28;19938;-68
2023/10/20 09:28:46;;;;;;;12.50;9.75;;;;;;;;;;5112757;27;20360;-69
2023/10/20 09:31:12;;;;;;;16.00;9.80;;;;;;;;;;5113131;28;20030;-68
2023/10/20 09:33:38;;;;;;;10.90;9.90;;;;;;;;;;5113362;27;20023;-69
2023/10/20 09:36:05;;;;;;;12.50;9.38;;;;;;;;;;5113124;28;20362;-68
2023/10/20 09:38:32;;;;;;;15.63;10.48;;;;;;;;;;5112328;28;20479;-68
2023/10/20 09:41:06;;;;;;;12.55;10.48;;;;;;;;;;5111023;28;20089;-67
2023/10/20 09:43:36;;;;;;;11.27;8.48;;;;;;;;;;5112901;28;20091;-68
2023/10/20 09:46:12;;;;;;;10.90;8.10;;;;;;;;;;5112972;28;20172;-67
2023/10/20 09:48:40;;;;;;;9.32;7.30;;;;;;;;;;5112525;28;20062;-70
2023/10/20 09:51:08;;;;;;;9.88;7.57;;;;;;;;;;5113368;27;20019;-67
2023/10/20 09:53:34;;;;;;;11.18;7.32;;;;;;;;;;5093538;28;20021;-67
2023/10/20 09:56:01;;;;;;;7.78;6.68;;;;;;;;;;5111922;28;20189;-67
2023/10/20 09:58:27;;;;;;;9.40;7.45;;;;;;;;;;5103282;28;20375;-70
2023/10/20 10:00:55;;;;;;;7.20;6.05;;;;;;;;;;5112312;28;20016;-67
2023/10/20 10:03:27;;;;;;;7.78;6.93;;;;;;;;;;5112112;28;20027;-67
2023/10/20 10:05:53;;;;;;;11.23;5.85;;;;;;;;;;5112483;27;20026;-67
2023/10/20 10:08:20;;;;;;;6.13;5.43;;;;;;;;;;5109495;28;20028;-68
2023/10/20 10:10:48;;;;;;;8.57;5.75;;;;;;;;;;5106099;28;20069;-68
2023/10/20 10:13:14;;;;;;;7.32;4.35;;;;;;;;;;5106421;28;20016;-68
2023/10/20 10:15:41;;;;;;;6.18;4.43;;;;;;;;;;5124603;27;20046;-67
2023/10/20 10:18:09;;;;;;;5.47;4.07;;;;;;;;;;5131992;27;20038;-65
2023/10/20 10:20:40;;;;;;;4.68;3.92;;;;;;;;;;5129828;27;20031;-66
2023/10/20 10:23:06;;;;;;;5.55;4.32;;;;;;;;;;5117139;27;20027;-65
2023/10/20 10:25:36;;;;;;;5.80;4.30;;;;;;;;;;5122118;27;20141;-65
2023/10/20 10:28:15;;;;;;;7.60;4.55;;;;;;;;;;5123743;27;20272;-67
2023/10/20 10:30:41;;;;;;;6.88;3.92;;;;;;;;;;5122103;27;20110;-70
2023/10/20 10:33:11;;;;;;;5.15;3.80;;;;;;;;;;5110187;27;20448;-70
2023/10/20 10:35:40;;;;;;;9.00;3.67;;;;;;;;;;5132353;27;20019;-68
2023/10/20 10:38:19;;;;;;;6.97;3.40;;;;;;;;;;5129828;27;20456;-68
2023/10/20 10:40:45;;;;;;;4.35;3.28;;;;;;;;;;5123561;27;20035;-66
2023/10/20 10:43:16;;;;;;;6.60;3.88;;;;;;;;;;5129717;27;20064;-66
2023/10/20 10:45:42;;;;;;;4.88;3.40;;;;;;;;;;5126825;27;20135;-69
2023/10/20 10:48:12;;;;;;;6.38;3.60;;;;;;;;;;5131832;27;20028;-67
2023/10/20 10:50:40;;;;;;;4.32;3.28;;;;;;;;;;5132078;27;20402;-67
2023/10/20 10:53:06;;;;;;;3.95;3.50;;;;;;;;;;5131677;27;20071;-67
2023/10/20 10:55:35;;;;;;;4.00;3.40;;;;;;;;;;5125830;27;20033;-67
2023/10/20 10:58:02;;;;;;;3.90;3.15;;;;;;;;;;5114744;27;20030;-67
2023/10/20 11:00:28;;;;;;;7.88;3.17;;;;;;;;;;5125154;27;20092;-67
2023/10/20 11:02:56;;;;;;;3.47;3.17;;;;;;;;;;5130433;27;20019;-68
2023/10/20 11:05:22;;;;;;;3.38;2.40;;;;;;;;;;5131960;27;20090;-67
2023/10/20 11:07:57;;;;;;;3.55;2.20;;;;;;;;;;5127990;27;20106;-67
2023/10/20 11:10:27;;;;;;;3.65;1.40;;;;;;;;;;5120845;27;20064;-67
2023/10/20 11:12:53;;;;;;;2.33;0.70;;;;;;;;;;5120014;27;20027;-67
2023/10/20 11:15:19;;;;;;;2.50;0.52;;;;;;;;;;5114810;27;20039;-67
2023/10/20 11:17:45;;;;;;;0.65;0.35;;;;;;;;;;5108832;28;20024;-67
2023/10/20 11:20:18;;;;;;;2.35;0.45;;;;;;;;;;5111711;28;20349;-67
2023/10/20 11:22:45;;;;;;;1.83;0.40;;;;;;;;;;5106928;28;20055;-67
2023/10/20 11:25:19;;;;;;;0.47;0.25;;;;;;;;;;5110178;28;20023;-67
2023/10/20 11:27:55;;;;;;;1.60;0.52;;;;;;;;;;5098616;28;20475;-67
2023/10/20 11:30:27;;;;;;;1.55;0.40;;;;;;;;;;5111309;28;20098;-67
2023/10/20 11:32:54;;;;;;;2.92;0.52;;;;;;;;;;5105885;28;20020;-67
2023/10/20 11:35:21;;;;;;;2.20;0.70;;;;;;;;;;5104202;28;20064;-67
2023/10/20 11:37:48;;;;;;;0.43;0.40;;;;;;;;;;5095702;28;20467;-67
2023/10/20 11:40:15;;;;;;;0.40;0.40;;;;;;;;;;5103835;28;20092;-68
2023/10/20 11:42:41;;;;;;;0.50;0.50;;;;;;;;;;5100522;28;20034;-67
2023/10/20 11:45:07;;;;;;;0.98;0.40;;;;;;;;;;5102155;28;20026;-67
2023/10/20 11:47:33;;;;;;;1.42;0.40;;;;;;;;;;5105432;28;20055;-66
2023/10/20 11:50:00;;;;;;;0.90;0.50;;;;;;;;;;5106693;28;20109;-66
2023/10/20 11:52:26;;;;;;;0.90;0.50;;;;;;;;;;5103004;28;20024;-67
2023/10/20 11:54:52;;;;;;;0.60;0.45;;;;;;;;;;5110464;28;20016;-67
2023/10/20 11:57:18;;;;;;;0.65;0.40;;;;;;;;;;5104448;28;20032;-67
2023/10/20 11:59:44;;;;;;;0.50;0.50;;;;;;;;;;5110979;28;20019;-67
2023/10/20 12:02:10;;;;;;;0.55;0.35;;;;;;;;;;5107366;28;20024;-67
2023/10/20 12:04:36;;;;;;;0.70;0.60;;;;;;;;;;5111624;28;20472;-66
2023/10/20 12:07:03;;;;;;;1.83;0.30;;;;;;;;;;5105800;28;20015;-67
2023/10/20 12:09:29;;;;;;;3.05;0.57;;;;;;;;;;5108340;28;20039;-67
2023/10/20 12:11:55;;;;;;;0.95;0.30;;;;;;;;;;5106095;28;20020;-66
2023/10/20 12:14:21;;;;;;;2.08;0.30;;;;;;;;;;5117802;28;20040;-66
2023/10/20 12:16:47;;;;;;;0.70;0.40;;;;;;;;;;5128515;28;20118;-66
2023/10/20 12:19:14;;;;;;;1.25;0.52;;;;;;;;;;5126555;28;20127;-68
2023/10/20 12:21:40;;;;;;;1.05;0.35;;;;;;;;;;5123362;28;20375;-69
2023/10/20 12:24:06;;;;;;;0.38;0.28;;;;;;;;;;5121406;28;20015;-68
2023/10/20 12:26:32;;;;;;;2.38;0.45;;;;;;;;;;5129568;28;20460;-68
2023/10/20 12:28:58;;;;;;;0.22;0.20;;;;;;;;;;5129832;28;20031;-68
2023/10/20 12:31:24;;;;;;;2.08;0.47;;;;;;;;;;5129687;28;20015;-69
2023/10/20 12:33:51;;;;;;;0.22;0.20;;;;;;;;;;5124541;28;20026;-69
2023/10/20 12:36:17;;;;;;;1.10;0.30;;;19.30;99.90;;;;;;5130921;28;20098;-68
2023/10/20 12:38:46;;;;;;;0.45;0.38;;;19.80;99.90;;;;;;5129399;28;20027;-70
2023/10/20 12:41:13;;;;;;;0.30;0.30;;;20.40;99.90;;;;;;5130860;27;20027;-69
2023/10/20 12:43:41;;;;;;;0.40;0.40;;;;;;;;;;5114338;28;20066;-68
2023/10/20 12:46:10;;;;;;;0.50;0.30;;;;;;;;;;5118941;28;21280;-67
2023/10/20 12:48:37;;;;;;;0.30;0.30;;;;;;;;;;5114492;28;20111;-67
2023/10/20 12:51:21;;;;;;;0.30;0.30;;;;;;;;;;5122688;27;20015;-68
2023/10/20 12:53:47;;;;;;;0.30;0.30;;;;;;;;;;5132548;27;20593;-69
2023/10/20 12:56:13;;;;;;;0.30;0.30;;;;;;;;;;5135063;27;20094;-68
2023/10/20 12:58:39;;;;;;;1.00;0.40;;;;;;;;;;5124489;27;20456;-68
2023/10/20 13:01:06;;;;;;;0.38;0.20;;;;;;;;;;5134210;27;20038;-68
2023/10/20 13:03:32;;;;;;;3.00;0.50;;;;;;;;;;5132165;27;20031;-68
2023/10/20 13:05:58;;;;;;;0.30;0.30;;;;;;;;;;5133409;27;20363;-67
2023/10/20 13:08:24;;;;;;;1.05;0.50;;;;;;;;;;5132671;27;20027;-68
2023/10/20 13:10:51;;;;;;;0.30;0.30;;;;;;;;;;5126643;27;20053;-68
2023/10/20 13:13:17;;;;;;;0.30;0.30;;;;;;;;;;5122260;27;20094;-68
2023/10/20 13:15:44;;;;;;;3.03;0.30;;;;;;;;;;5127993;27;20389;-69
2023/10/20 13:18:12;;;;;;;0.75;0.30;;;;;;;;;;5124672;27;20038;-67
2023/10/20 13:20:39;;;;;;;0.40;0.32;;;;;;;;;;5127490;27;20059;-71
2023/10/20 13:23:05;;;;;;;0.95;0.40;;;;;;;;;;5115949;27;20168;-73
2023/10/20 13:25:31;;;;;;;1.80;0.50;;;;;;;;;;5132758;27;20447;-67
2023/10/20 13:27:59;;;;;;;0.75;0.28;;;;;;;;;;5124973;27;20011;-67
2023/10/20 13:30:25;;;;;;;1.85;0.50;;;;;;;;;;5133492;27;20022;-67
2023/10/20 13:32:51;;;;;;;0.40;0.30;;;;;;;;;;5128396;27;20023;-67
2023/10/20 13:35:17;;;;;;;0.43;0.20;;;;;;;;;;5133715;27;20011;-66
2023/10/20 13:37:44;;;;;;;3.67;0.30;;;;;;;;;;5129568;27;20102;-67
2023/10/20 13:40:10;;;;;;;2.53;0.28;;;;;;;;;;5133819;27;20015;-68
2023/10/20 13:42:36;;;;;;;0.25;0.25;;;;;;;;;;5132652;27;20045;-68
2023/10/20 13:45:03;;;;;;;0.30;0.30;;;;;;;;;;5132955;27;20098;-68
2023/10/20 13:47:30;;;;;;;2.38;0.20;;;;;;;;;;5128654;27;20042;-68
2023/10/20 13:49:56;;;;;;;1.85;0.20;;;;;;;;;;5131823;27;20015;-68
2023/10/20 13:52:22;;;;;;;0.57;0.20;;;;;;;;;;5129041;27;20517;-68
2023/10/20 13:54:48;;;;;;;0.25;0.25;;;;;;;;;;5123312;27;20023;-69
2023/10/20 13:57:15;;;;;;;2.70;0.43;;;;;;;;;;5127667;27;20095;-68
2023/10/20 13:59:41;;;;;;;0.47;0.30;;;;;;;;;;5138140;27;20030;-68
2023/10/20 14:02:07;;;;;;;0.32;0.30;;;;;;;;;;5130122;27;20055;-68
2023/10/20 14:04:34;;;;;;;0.35;0.30;;;;;;;;;;5133478;27;20031;-68
2023/10/20 14:07:00;;;;;;;0.68;0.50;;;;;;;;;;5127693;27;20062;-68
2023/10/20 14:09:26;;;;;;;0.38;0.32;;;;;;;;;;5133064;27;20367;-68
2023/10/20 14:11:52;;;;;;;0.30;0.30;;;;;;;;;;5129920;27;20160;-68
2023/10/20 14:14:18;;;;;;;1.65;0.32;;;;;;;;;;5112747;27;20039;-68
2023/10/20 14:16:44;;;;;;;0.70;0.20;;;;;;;;;;5133115;27;20345;-68
2023/10/20 14:19:11;;;;;;;0.50;0.30;;;;;;;;;;5132394;27;20166;-68
2023/10/20 14:21:37;;;;;;;0.68;0.30;;;;;;;;;;5133030;27;20100;-67
2023/10/20 14:24:03;;;;;;;0.70;0.30;;;16.90;99.90;;;;;;5133470;27;20089;-68
2023/10/20 14:26:28;;;;;;;0.60;0.60;;;16.70;99.90;;;;;;5131631;27;20019;-68
2023/10/20 14:28:57;;;;;;;0.38;0.32;;;;;;;;;;5131391;27;20038;-68
2023/10/20 14:31:22;;;;;;;0.30;0.28;;;15.90;99.90;;;;;;5113423;27;20421;-68
2023/10/20 14:33:48;;;;;;;0.65;0.60;;;15.90;99.90;;;;;;5124835;27;20098;-68
2023/10/20 14:36:16;;;;;;;0.63;0.40;;;15.70;99.90;;;;;;5125332;27;20095;-68
2023/10/20 14:38:42;;;;;;;2.38;0.43;;;15.50;99.90;;;;;;5124961;27;21834;-68
2023/10/20 14:41:11;;;;;;;0.65;0.50;;;;;;;;;;5133593;27;20065;-68
2023/10/20 14:43:39;;;;;;;0.77;0.30;;;;;;;;;;5130151;27;20471;-68
2023/10/20 14:46:05;;;;;;;3.65;0.47;;;;;;;;;;5118314;27;20165;-68
2023/10/20 14:48:32;;;;;;;0.95;0.38;;;;;;;;;;5130047;27;20023;-68
2023/10/20 14:51:01;;;;;;;0.68;0.35;;;;;;;;;;5130383;27;20023;-69
2023/10/20 14:53:27;;;;;;;2.60;0.40;;;;;;;;;;5131984;27;20483;-69
2023/10/20 14:55:55;;;;;;;1.23;0.60;;;;;;;;;;5131005;27;20467;-69
2023/10/20 14:58:21;;;;;;;0.85;0.50;;;;;;;;;;5131637;27;20015;-67
2023/10/20 15:00:50;;;;;;;0.77;0.50;;;;;;;;;;5131650;27;20559;-68
2023/10/20 15:03:20;;;;;;;0.77;0.43;;;;;;;;;;5132393;27;20102;-67